createdAt,value
2023-02-22T00:01:51.141Z,101502.50
2023-02-22T00:04:21.350Z,101502.50
2023-02-22T00:06:50.798Z,101491.72
2023-02-22T00:09:20.777Z,101497.09
2023-02-22T00:11:49.263Z,101489.97
2023-02-22T00:14:20.401Z,101482.28
2023-02-22T00:16:50.614Z,101488.84
2023-02-22T00:19:19.046Z,101483.53
2023-02-22T00:21:47.437Z,101484.41
2023-02-22T00:24:23.817Z,101485.38
2023-02-22T00:26:52.698Z,101476.31
2023-02-22T00:29:20.480Z,101480.84
2023-02-22T00:31:52.227Z,101482.69
2023-02-22T00:34:20.173Z,101487.22
2023-02-22T00:36:48.287Z,101494.44
2023-02-22T00:39:16.188Z,101483.84
2023-02-22T00:41:44.352Z,101485.78
2023-02-22T00:44:12.690Z,101489.44
2023-02-22T00:46:40.444Z,101485.09
2023-02-22T00:49:09.580Z,101491.47
2023-02-22T00:51:37.293Z,101478.84
2023-02-22T00:54:05.376Z,101482.31
2023-02-22T00:56:34.138Z,101474.97
2023-02-22T00:59:02.214Z,101472.41
2023-02-22T01:01:30.335Z,101476.19
2023-02-22T01:03:58.174Z,101479.81
2023-02-22T01:06:27.431Z,101482.50
2023-02-22T01:08:55.224Z,101472.75
2023-02-22T01:11:23.380Z,101470.13
2023-02-22T01:13:54.114Z,101467.53
2023-02-22T01:16:22.676Z,101469.56
2023-02-22T01:18:50.620Z,101464.19
2023-02-22T01:21:18.716Z,101469.56
2023-02-22T01:23:48.443Z,101465.25
2023-02-22T01:26:16.284Z,101467.09
2023-02-22T01:28:44.051Z,101462.75
2023-02-22T01:31:12.545Z,101456.59
2023-02-22T01:33:41.449Z,101466.72
2023-02-22T01:36:11.474Z,101459.56
2023-02-22T01:38:39.494Z,101458.81
2023-02-22T01:41:09.006Z,101444.47
2023-02-22T01:43:36.743Z,101436.56
2023-02-22T01:46:05.664Z,101439.34
2023-02-22T01:48:40.116Z,101436.09
2023-02-22T01:51:12.454Z,101435.25
2023-02-22T01:53:47.327Z,101432.22
2023-02-22T01:56:17.161Z,101436.09
2023-02-22T01:58:50.201Z,101431.56
2023-02-22T02:01:20.863Z,101424.47
2023-02-22T02:03:49.369Z,101428.00
2023-02-22T02:06:18.012Z,101428.00
2023-02-22T02:08:53.959Z,101419.25
2023-02-22T02:11:25.775Z,101417.63
2023-02-22T02:13:56.059Z,101420.72
2023-02-22T02:16:25.703Z,101408.38
2023-02-22T02:18:54.324Z,101417.53
2023-02-22T02:22:06.504Z,101411.44
2023-02-22T02:25:00.230Z,101415.88
2023-02-22T02:27:40.294Z,101406.94
2023-02-22T02:30:43.623Z,101397.97
2023-02-22T02:33:21.939Z,101399.72
2023-02-22T02:35:57.542Z,101404.16
2023-02-22T02:38:35.249Z,101405.09
2023-02-22T02:41:11.826Z,101399.94
2023-02-22T02:43:46.937Z,101399.25
2023-02-22T02:46:19.444Z,101377.81
2023-02-22T02:48:54.806Z,101380.50
2023-02-22T02:51:24.074Z,101376.91
2023-02-22T02:53:53.567Z,101371.63
2023-02-22T02:56:23.376Z,101370.00
2023-02-22T02:58:53.306Z,101366.63
2023-02-22T03:01:42.987Z,101359.50
2023-02-22T03:04:28.491Z,101350.56
2023-02-22T03:07:12.063Z,101348.84
2023-02-22T03:09:49.388Z,101345.25
2023-02-22T03:12:29.073Z,101348.72
2023-02-22T03:15:08.338Z,101348.72
2023-02-22T03:17:44.327Z,101347.88
2023-02-22T03:20:21.966Z,101340.75
2023-02-22T03:22:56.326Z,101345.06
2023-02-22T03:25:29.119Z,101336.03
2023-02-22T03:28:02.343Z,101339.69
2023-02-22T03:30:36.882Z,101327.19
2023-02-22T03:33:10.549Z,101318.25
2023-02-22T03:35:44.642Z,101316.41
2023-02-22T03:38:14.454Z,101316.41
2023-02-22T03:40:46.334Z,101309.28
2023-02-22T03:43:17.683Z,101314.47
2023-02-22T03:45:48.216Z,101308.22
2023-02-22T03:48:21.424Z,101303.69
2023-02-22T03:50:51.963Z,101309.09
2023-02-22T03:53:23.118Z,101304.78
2023-02-22T03:55:52.801Z,101298.50
2023-02-22T03:58:23.924Z,101285.97
2023-02-22T04:00:53.096Z,101284.47
2023-02-22T04:03:21.502Z,101282.94
2023-02-22T04:05:50.875Z,101276.00
2023-02-22T04:08:18.725Z,101272.63
2023-02-22T04:10:46.735Z,101271.78
2023-02-22T04:13:14.684Z,101262.81
2023-02-22T04:15:42.526Z,101260.06
2023-02-22T04:18:10.275Z,101252.03
2023-02-22T04:20:38.012Z,101253.78
2023-02-22T04:23:07.471Z,101251.31
2023-02-22T04:25:35.235Z,101251.38
2023-02-22T04:28:04.001Z,101253.31
2023-02-22T04:30:31.950Z,101251.59
2023-02-22T04:32:59.815Z,101255.34
2023-02-22T04:35:27.663Z,101254.69
2023-02-22T04:37:55.417Z,101247.56
2023-02-22T04:40:24.672Z,101247.56
2023-02-22T04:42:52.390Z,101238.53
2023-02-22T04:45:20.417Z,101242.94
2023-02-22T04:47:48.290Z,101239.47
2023-02-22T04:50:17.260Z,101240.44
2023-02-22T04:52:45.668Z,101240.44
2023-02-22T04:55:13.435Z,101235.94
2023-02-22T04:57:42.558Z,101233.13
2023-02-22T05:00:11.436Z,101226.97
2023-02-22T05:02:40.031Z,101224.50
2023-02-22T05:05:08.483Z,101236.13
2023-02-22T05:07:36.255Z,101230.84
2023-02-22T05:10:04.114Z,101235.25
2023-02-22T05:12:31.818Z,101243.34
2023-02-22T05:15:00.919Z,101231.63
2023-02-22T05:17:28.723Z,101237.97
2023-02-22T05:19:56.540Z,101225.63
2023-02-22T05:22:24.520Z,101235.56
2023-02-22T05:24:52.958Z,101226.59
2023-02-22T05:27:21.853Z,101219.41
2023-02-22T05:29:49.826Z,101220.34
2023-02-22T05:32:19.004Z,101219.41
2023-02-22T05:34:46.799Z,101215.81
2023-02-22T05:37:14.564Z,101215.06
2023-02-22T05:39:42.299Z,101205.16
2023-02-22T05:42:10.035Z,101201.91
2023-02-22T05:44:37.794Z,101215.53
2023-02-22T05:47:05.628Z,101198.66
2023-02-22T05:49:34.763Z,101193.16
2023-02-22T05:52:02.538Z,101193.03
2023-02-22T05:54:30.282Z,101192.19
2023-02-22T05:56:58.036Z,101179.59
2023-02-22T05:59:25.778Z,101170.75
2023-02-22T06:01:53.538Z,101176.22
2023-02-22T06:04:21.316Z,101170.09
2023-02-22T06:06:50.410Z,101166.34
2023-02-22T06:09:18.276Z,101171.81
2023-02-22T06:11:46.031Z,101165.56
2023-02-22T06:14:13.783Z,101166.63
2023-02-22T06:16:41.618Z,101163.25
2023-02-22T06:19:09.455Z,101157.88
2023-02-22T06:21:37.195Z,101153.28
2023-02-22T06:24:07.031Z,101151.44
2023-02-22T06:26:34.779Z,101145.50
2023-02-22T06:29:02.529Z,101145.59
2023-02-22T06:31:31.804Z,101155.31
2023-02-22T06:33:59.525Z,101147.31
2023-02-22T06:36:27.249Z,101148.06
2023-02-22T06:38:55.087Z,101153.56
2023-02-22T06:41:24.555Z,101150.66
2023-02-22T06:43:52.298Z,101151.44
2023-02-22T06:46:21.187Z,101147.78
2023-02-22T06:48:50.058Z,101151.25
2023-02-22T06:51:18.074Z,101157.31
2023-02-22T06:53:46.056Z,101159.69
2023-02-22T06:56:13.872Z,101176.91
2023-02-22T06:58:42.979Z,101160.00
2023-02-22T07:01:10.879Z,101156.53
2023-02-22T07:03:38.783Z,101164.50
2023-02-22T07:06:08.154Z,101159.88
2023-02-22T07:08:35.892Z,101157.97
2023-02-22T07:11:03.668Z,101159.59
2023-02-22T07:13:31.422Z,101164.03
2023-02-22T07:16:00.629Z,101168.53
2023-02-22T07:18:30.010Z,101172.84
2023-02-22T07:20:58.697Z,101182.88
2023-02-22T07:23:27.082Z,101181.03
2023-02-22T07:25:54.827Z,101176.41
2023-02-22T07:28:22.613Z,101186.97
2023-02-22T07:30:50.329Z,101192.06
2023-02-22T07:33:19.499Z,101193.91
2023-02-22T07:35:49.708Z,101196.59
2023-02-22T07:38:18.860Z,101187.53
2023-02-22T07:40:46.969Z,101190.16
2023-02-22T07:43:17.773Z,101191.00
2023-02-22T07:45:46.354Z,101191.66
2023-02-22T07:48:17.407Z,101188.03
2023-02-22T07:50:47.405Z,101188.78
2023-02-22T07:53:18.717Z,101188.69
2023-02-22T07:55:46.565Z,101197.50
2023-02-22T07:58:16.413Z,101197.50
2023-02-22T08:00:45.029Z,101197.44
2023-02-22T08:03:14.588Z,101208.94
2023-02-22T08:05:43.881Z,101198.19
2023-02-22T08:08:14.682Z,101194.63
2023-02-22T08:10:43.239Z,101195.59
2023-02-22T08:13:11.114Z,101188.47
2023-02-22T08:15:40.242Z,101178.47
2023-02-22T08:18:10.135Z,101174.81
2023-02-22T08:20:39.376Z,101173.94
2023-02-22T08:23:07.880Z,101169.31
2023-02-22T08:25:37.371Z,101158.56
2023-02-22T08:28:06.978Z,101162.13
2023-02-22T08:30:38.315Z,101146.91
2023-02-22T08:33:08.038Z,101147.88
2023-02-22T08:35:35.881Z,101146.16
2023-02-22T08:38:06.009Z,101141.72
2023-02-22T08:40:35.792Z,101140.75
2023-02-22T08:43:06.615Z,101140.75
2023-02-22T08:45:34.508Z,101132.56
2023-02-22T08:48:02.278Z,101137.88
2023-02-22T08:50:33.622Z,101137.88
2023-02-22T08:53:03.175Z,101134.84
2023-02-22T08:55:33.296Z,101141.69
2023-02-22T08:58:03.060Z,101135.09
2023-02-22T09:00:34.083Z,101145.81
2023-02-22T09:03:02.626Z,101140.31
2023-02-22T09:05:31.603Z,101126.63
2023-02-22T09:08:00.093Z,101114.75
2023-02-22T09:10:29.934Z,101116.31
2023-02-22T09:12:58.336Z,101102.81
2023-02-22T09:15:27.007Z,101116.00
2023-02-22T09:17:56.757Z,101111.66
2023-02-22T09:20:26.050Z,101108.88
2023-02-22T09:22:54.709Z,101118.34
2023-02-22T09:25:23.333Z,101130.75
2023-02-22T09:27:52.844Z,101124.97
2023-02-22T09:30:24.770Z,101127.03
2023-02-22T09:32:54.783Z,101126.41
2023-02-22T09:35:27.142Z,101113.56
2023-02-22T09:37:56.383Z,101118.84
2023-02-22T09:40:30.034Z,101116.16
2023-02-22T09:43:03.094Z,101126.69
2023-02-22T09:45:36.927Z,101129.19
2023-02-22T09:48:19.407Z,101128.34
2023-02-22T09:50:53.814Z,101132.44
2023-02-22T09:53:29.671Z,101127.91
2023-02-22T09:56:01.714Z,101111.81
2023-02-22T09:58:33.681Z,101118.84
2023-02-22T10:01:17.663Z,101132.13
2023-02-22T10:03:52.115Z,101142.41
2023-02-22T10:06:25.529Z,101141.22
2023-02-22T10:08:58.386Z,101140.78
2023-02-22T10:11:41.318Z,101135.06
2023-02-22T10:14:31.035Z,101124.59
2023-02-22T10:17:04.343Z,101117.91
2023-02-22T10:19:44.242Z,101122.97
2023-02-22T10:22:31.371Z,101121.88
2023-02-22T10:25:02.268Z,101121.66
2023-02-22T10:27:34.254Z,101126.59
2023-02-22T10:30:22.373Z,101116.22
2023-02-22T10:32:56.480Z,101121.81
2023-02-22T10:35:26.209Z,101123.09
2023-02-22T10:38:00.745Z,101127.28
2023-02-22T10:40:33.093Z,101126.97
2023-02-22T10:43:06.172Z,101123.03
2023-02-22T10:45:37.207Z,101120.97
2023-02-22T10:48:11.588Z,101116.22
2023-02-22T10:50:41.541Z,101119.44
2023-02-22T10:53:12.050Z,101123.66
2023-02-22T10:56:13.783Z,101116.91
2023-02-22T10:58:48.293Z,101115.59
2023-02-22T11:01:26.179Z,101120.66
2023-02-22T11:04:02.552Z,101108.63
2023-02-22T11:06:30.869Z,101110.88
2023-02-22T11:09:18.984Z,101099.09
2023-02-22T11:11:48.678Z,101091.47
2023-02-22T11:14:28.032Z,101089.06
2023-02-22T11:16:57.727Z,101088.59
2023-02-22T11:19:27.637Z,101087.13
2023-02-22T11:21:58.279Z,101087.63
2023-02-22T11:24:37.287Z,101080.88
2023-02-22T11:27:25.147Z,101081.50
2023-02-22T11:29:53.704Z,101077.72
2023-02-22T11:32:22.470Z,101060.50
2023-02-22T11:35:03.549Z,101067.50
2023-02-22T11:37:38.023Z,101065.44
2023-02-22T11:40:17.767Z,101072.19
2023-02-22T11:42:46.100Z,101065.66
2023-02-22T11:45:20.719Z,101068.97
2023-02-22T11:47:53.870Z,101067.03
2023-02-22T11:50:32.933Z,101066.66
2023-02-22T11:53:22.481Z,101057.56
2023-02-22T11:56:04.593Z,101065.44
2023-02-22T11:58:42.869Z,101057.19
2023-02-22T12:01:20.957Z,101050.28
2023-02-22T12:04:17.014Z,101041.94
2023-02-22T12:06:52.912Z,101037.28
2023-02-22T12:09:28.030Z,101028.16
2023-02-22T12:12:10.517Z,101039.47
2023-02-22T12:14:45.248Z,101031.84
2023-02-22T12:17:25.508Z,101030.47
2023-02-22T12:19:58.780Z,101029.25
2023-02-22T12:22:34.166Z,101028.00
2023-02-22T12:25:09.715Z,101033.81
2023-02-22T12:27:45.245Z,101028.88
2023-02-22T12:30:20.716Z,101030.94
2023-02-22T12:32:52.054Z,101032.28
2023-02-22T12:35:22.956Z,101027.47
2023-02-22T12:38:01.728Z,101034.50
2023-02-22T12:40:36.728Z,101036.09
2023-02-22T12:43:16.677Z,101031.13
2023-02-22T12:45:50.325Z,101033.47
2023-02-22T12:48:27.356Z,101037.63
2023-02-22T12:50:59.372Z,101027.25
2023-02-22T12:53:31.589Z,101034.00
2023-02-22T12:56:05.844Z,101033.78
2023-02-22T12:58:46.691Z,101030.53
2023-02-22T13:01:20.297Z,101036.41
2023-02-22T13:03:49.164Z,101039.59
2023-02-22T13:06:36.735Z,101038.94
2023-02-22T13:09:24.394Z,101040.53
2023-02-22T13:12:02.576Z,101036.72
2023-02-22T13:14:45.842Z,101038.69
2023-02-22T13:17:21.277Z,101044.84
2023-02-22T13:19:59.029Z,101045.69
2023-02-22T13:22:35.157Z,101053.09
2023-02-22T13:25:11.217Z,101051.63
2023-02-22T13:27:43.916Z,101055.09
2023-02-22T13:30:23.052Z,101044.84
2023-02-22T13:33:01.946Z,101043.44
2023-02-22T13:35:59.177Z,101038.91
2023-02-22T13:39:13.021Z,101035.91
2023-02-22T13:41:51.900Z,101030.47
2023-02-22T13:44:52.475Z,101036.78
2023-02-22T13:47:49.785Z,101032.94
2023-02-22T13:50:42.608Z,101026.53
2023-02-22T13:53:15.616Z,101028.09
2023-02-22T13:55:49.446Z,101044.97
2023-02-22T13:58:17.120Z,101036.84
2023-02-22T14:00:51.159Z,101038.16
2023-02-22T14:03:36.185Z,101033.47
2023-02-22T14:06:06.342Z,101030.75
2023-02-22T14:08:46.666Z,101030.59
2023-02-22T14:11:45.424Z,101031.34
2023-02-22T14:14:17.251Z,101039.94
2023-02-22T14:16:45.527Z,101038.94
2023-02-22T14:19:23.495Z,101039.66
2023-02-22T14:22:02.089Z,101034.25
2023-02-22T14:24:35.090Z,101042.97
2023-02-22T14:27:05.089Z,101050.09
2023-02-22T14:29:33.170Z,101050.97
2023-02-22T14:32:07.526Z,101048.41
2023-02-22T14:34:46.620Z,101051.13
2023-02-22T14:37:19.047Z,101052.81
2023-02-22T14:39:51.195Z,101048.13
2023-02-22T14:42:24.996Z,101051.56
2023-02-22T14:45:00.520Z,101049.56
2023-02-22T14:47:40.370Z,101060.16
2023-02-22T14:50:16.163Z,101058.44
2023-02-22T14:52:47.481Z,101055.88
2023-02-22T14:55:21.435Z,101056.72
2023-02-22T14:58:01.358Z,101056.84
2023-02-22T15:00:38.522Z,101055.41
2023-02-22T15:03:06.331Z,101059.84
2023-02-22T15:05:39.291Z,101062.56
2023-02-22T15:08:09.215Z,101064.41
2023-02-22T15:10:43.824Z,101069.25
2023-02-22T15:13:20.461Z,101070.97
2023-02-22T15:15:49.940Z,101070.13
2023-02-22T15:18:25.248Z,101066.66
2023-02-22T15:20:59.455Z,101066.81
2023-02-22T15:23:30.789Z,101071.63
2023-02-22T15:25:59.171Z,101067.34
2023-02-22T15:28:30.948Z,101078.44
2023-02-22T15:31:24.952Z,101078.72
2023-02-22T15:33:54.770Z,101079.81
2023-02-22T15:36:28.619Z,101083.81
2023-02-22T15:38:56.935Z,101087.19
2023-02-22T15:41:29.078Z,101082.59
2023-02-22T15:44:08.076Z,101081.75
2023-02-22T15:46:42.063Z,101084.84
2023-02-22T15:49:23.234Z,101091.28
2023-02-22T15:52:04.480Z,101087.72
2023-02-22T15:54:40.899Z,101093.97
2023-02-22T15:57:09.406Z,101095.84
2023-02-22T15:59:44.985Z,101090.66
2023-02-22T16:02:32.388Z,101098.94
2023-02-22T16:05:03.899Z,101093.66
2023-02-22T16:07:33.646Z,101089.47
2023-02-22T16:10:08.956Z,101084.78
2023-02-22T16:12:37.276Z,101098.34
2023-02-22T16:15:16.644Z,101093.06
2023-02-22T16:18:01.076Z,101093.91
2023-02-22T16:20:36.589Z,101096.16
2023-02-22T16:23:27.215Z,101089.28
2023-02-22T16:26:07.145Z,101091.25
2023-02-22T16:28:35.965Z,101100.38
2023-02-22T16:31:04.756Z,101093.06
2023-02-22T16:33:33.923Z,101100.50
2023-02-22T16:36:08.159Z,101100.75
2023-02-22T16:38:39.200Z,101104.72
2023-02-22T16:41:08.179Z,101107.78
2023-02-22T16:43:36.812Z,101106.06
2023-02-22T16:46:06.900Z,101107.78
2023-02-22T16:48:38.176Z,101122.09
2023-02-22T16:51:14.959Z,101115.69
2023-02-22T16:53:44.612Z,101121.97
2023-02-22T16:56:16.304Z,101122.81
2023-02-22T16:58:47.215Z,101127.63
2023-02-22T17:01:15.014Z,101118.16
2023-02-22T17:03:42.964Z,101125.09
2023-02-22T17:06:11.525Z,101123.63
2023-02-22T17:08:40.207Z,101124.59
2023-02-22T17:11:11.846Z,101128.16
2023-02-22T17:13:41.543Z,101131.84
2023-02-22T17:16:14.725Z,101128.31
2023-02-22T17:18:42.758Z,101135.56
2023-02-22T17:21:12.304Z,101135.44
2023-02-22T17:23:40.103Z,101138.38
2023-02-22T17:26:09.267Z,101138.75
2023-02-22T17:28:37.101Z,101145.19
2023-02-22T17:31:05.199Z,101151.72
2023-02-22T17:33:36.657Z,101150.00
2023-02-22T17:36:06.293Z,101151.97
2023-02-22T17:38:34.804Z,101147.78
2023-02-22T17:41:03.225Z,101156.16
2023-02-22T17:43:32.405Z,101154.44
2023-02-22T17:46:00.333Z,101158.13
2023-02-22T17:48:28.732Z,101162.56
2023-02-22T17:50:56.466Z,101162.69
2023-02-22T17:53:25.471Z,101168.22
2023-02-22T17:55:53.479Z,101166.50
2023-02-22T17:58:22.344Z,101164.78
2023-02-22T18:00:51.862Z,101175.59
2023-02-22T18:03:25.464Z,101171.91
2023-02-22T18:06:01.398Z,101169.44
2023-02-22T18:08:31.144Z,101173.25
2023-02-22T18:11:02.037Z,101172.41
2023-02-22T18:13:30.129Z,101184.97
2023-02-22T18:16:00.619Z,101170.56
2023-02-22T18:18:28.962Z,101171.44
2023-02-22T18:20:59.851Z,101173.16
2023-02-22T18:23:29.699Z,101176.59
2023-02-22T18:26:10.083Z,101174.84
2023-02-22T18:28:38.748Z,101171.31
2023-02-22T18:31:09.816Z,101167.75
2023-02-22T18:33:38.097Z,101169.34
2023-02-22T18:36:06.947Z,101174.75
2023-02-22T18:38:34.735Z,101178.31
2023-02-22T18:41:03.961Z,101167.63
2023-02-22T18:43:34.390Z,101176.59
2023-02-22T18:46:11.678Z,101173.03
2023-02-22T18:48:39.928Z,101172.06
2023-02-22T18:51:09.821Z,101173.75
2023-02-22T18:53:38.614Z,101176.72
2023-02-22T18:56:08.374Z,101179.44
2023-02-22T18:58:38.849Z,101179.44
2023-02-22T19:01:08.021Z,101179.56
2023-02-22T19:03:38.427Z,101182.28
2023-02-22T19:06:09.157Z,101183.13
2023-02-22T19:08:39.644Z,101177.22
2023-02-22T19:11:09.319Z,101184.69
2023-02-22T19:13:37.580Z,101187.53
2023-02-22T19:16:07.253Z,101187.63
2023-02-22T19:18:35.383Z,101186.78
2023-02-22T19:21:09.598Z,101184.91
2023-02-22T19:23:39.509Z,101179.63
2023-02-22T19:26:09.364Z,101180.75
2023-02-22T19:28:37.196Z,101196.38
2023-02-22T19:31:13.492Z,101197.69
2023-02-22T19:33:41.584Z,101191.91
2023-02-22T19:36:12.385Z,101186.00
2023-02-22T19:38:40.666Z,101187.75
2023-02-22T19:41:10.828Z,101187.84
2023-02-22T19:43:38.782Z,101193.25
2023-02-22T19:46:07.654Z,101200.53
2023-02-22T19:48:36.018Z,101190.81
2023-02-22T19:51:06.234Z,101190.06
2023-02-22T19:53:35.914Z,101192.00
2023-02-22T19:56:09.545Z,101201.13
2023-02-22T19:58:37.876Z,101194.97
2023-02-22T20:01:16.016Z,101194.00
2023-02-22T20:03:44.156Z,101189.44
2023-02-22T20:06:16.261Z,101184.00
2023-02-22T20:08:45.561Z,101194.00
2023-02-22T20:11:14.314Z,101203.09
2023-02-22T20:13:43.656Z,101197.69
2023-02-22T20:16:15.619Z,101194.22
2023-02-22T20:18:43.655Z,101195.44
2023-02-22T20:21:15.185Z,101202.19
2023-02-22T20:23:44.420Z,101205.78
2023-02-22T20:26:18.463Z,101213.13
2023-02-22T20:28:46.935Z,101215.84
2023-02-22T20:31:16.316Z,101214.88
2023-02-22T20:33:45.671Z,101216.81
2023-02-22T20:36:15.375Z,101219.78
2023-02-22T20:38:43.806Z,101221.59
2023-02-22T20:41:17.234Z,101229.72
2023-02-22T20:43:45.217Z,101235.00
2023-02-22T20:46:13.154Z,101226.03
2023-02-22T20:48:41.031Z,101234.28
2023-02-22T20:51:10.102Z,101227.25
2023-02-22T20:53:41.743Z,101231.56
2023-02-22T20:56:13.794Z,101236.84
2023-02-22T20:58:43.835Z,101237.84
2023-02-22T21:01:13.907Z,101235.25
2023-02-22T21:03:42.906Z,101231.56
2023-02-22T21:06:11.934Z,101224.31
2023-02-22T21:08:40.110Z,101232.41
2023-02-22T21:11:11.859Z,101233.31
2023-02-22T21:13:39.826Z,101224.31
2023-02-22T21:16:11.305Z,101218.03
2023-02-22T21:18:39.153Z,101227.13
2023-02-22T21:21:10.373Z,101230.69
2023-02-22T21:23:38.546Z,101223.59
2023-02-22T21:26:07.311Z,101234.28
2023-02-22T21:28:50.417Z,101237.84
2023-02-22T21:31:22.321Z,101239.69
2023-02-22T21:33:51.778Z,101234.28
2023-02-22T21:36:19.880Z,101233.31
2023-02-22T21:38:53.245Z,101235.25
2023-02-22T21:41:22.124Z,101235.25
2023-02-22T21:43:51.436Z,101240.78
2023-02-22T21:46:20.875Z,101240.66
2023-02-22T21:48:49.377Z,101239.81
2023-02-22T21:51:19.878Z,101237.19
2023-02-22T21:53:49.554Z,101232.78
2023-02-22T21:56:19.641Z,101225.75
2023-02-22T21:58:50.149Z,101226.50
2023-02-22T22:01:18.358Z,101232.03
2023-02-22T22:03:48.061Z,101231.16
2023-02-22T22:06:15.846Z,101226.63
2023-02-22T22:08:46.336Z,101229.34
2023-02-22T22:11:17.953Z,101227.59
2023-02-22T22:13:46.328Z,101229.44
2023-02-22T22:16:16.439Z,101230.31
2023-02-22T22:18:45.947Z,101233.78
2023-02-22T22:21:18.050Z,101226.63
2023-02-22T22:23:47.532Z,101228.47
2023-02-22T22:26:16.895Z,101229.44
2023-02-22T22:28:46.264Z,101223.31
2023-02-22T22:31:15.729Z,101219.72
2023-02-22T22:33:45.360Z,101216.28
2023-02-22T22:36:16.679Z,101226.34
2023-02-22T22:38:47.181Z,101226.34
2023-02-22T22:41:17.103Z,101229.81
2023-02-22T22:43:46.188Z,101236.06
2023-02-22T22:46:15.165Z,101228.06
2023-02-22T22:48:43.503Z,101235.31
2023-02-22T22:51:14.483Z,101237.03
2023-02-22T22:53:45.601Z,101237.94
2023-02-22T22:56:16.313Z,101239.75
2023-02-22T22:58:47.727Z,101243.44
2023-02-22T23:01:19.733Z,101245.28
2023-02-22T23:03:55.092Z,101248.00
2023-02-22T23:06:25.939Z,101248.97
2023-02-22T23:09:10.259Z,101243.81
2023-02-22T23:11:44.570Z,101247.34
2023-02-22T23:14:14.877Z,101243.69
2023-02-22T23:16:43.044Z,101236.66
2023-02-22T23:19:11.021Z,101243.91
2023-02-22T23:21:39.480Z,101246.59
2023-02-22T23:24:08.938Z,101242.19
2023-02-22T23:26:36.912Z,101246.72
2023-02-22T23:29:05.478Z,101247.59
2023-02-22T23:31:33.402Z,101251.16
2023-02-22T23:34:06.658Z,101253.00
2023-02-22T23:36:34.630Z,101253.00
2023-02-22T23:39:02.387Z,101261.97
2023-02-22T23:41:31.540Z,101253.00
2023-02-22T23:44:00.067Z,101253.88
2023-02-22T23:46:32.712Z,101252.13
2023-02-22T23:49:02.649Z,101251.38
2023-02-22T23:51:39.216Z,101254.84
2023-02-22T23:54:09.122Z,101251.16
2023-02-22T23:56:40.317Z,101253.97
2023-02-22T23:59:11.248Z,101260.38
